sensor_id;sensor_type;location;lat;lon;timestamp;pressure;altitude;pressure_sealevel;temperature;humidity
17615;BME280;8926;49.720;6.576;2022-08-19T00:00:13;99422.84;;;21.51;63.41
17615;BME280;8926;49.720;6.576;2022-08-19T00:02:40;99437.44;;;21.47;63.48
17615;BME280;8926;49.720;6.576;2022-08-19T00:05:07;99441.09;;;21.46;63.49
17615;BME280;8926;49.720;6.576;2022-08-19T00:07:32;99434.44;;;21.42;63.63
17615;BME280;8926;49.720;6.576;2022-08-19T00:09:58;99443.75;;;21.38;63.89
17615;BME280;8926;49.720;6.576;2022-08-19T00:12:23;99445.41;;;21.39;64.54
17615;BME280;8926;49.720;6.576;2022-08-19T00:14:48;99450.72;;;21.39;64.28
17615;BME280;8926;49.720;6.576;2022-08-19T00:17:14;99443.25;;;21.43;64.25
17615;BME280;8926;49.720;6.576;2022-08-19T00:19:39;99443.41;;;21.41;63.81
17615;BME280;8926;49.720;6.576;2022-08-19T00:22:06;99444.75;;;21.45;63.66
17615;BME280;8926;49.720;6.576;2022-08-19T00:24:34;99432.13;;;21.47;63.48
17615;BME280;8926;49.720;6.576;2022-08-19T00:27:00;99432.13;;;21.47;63.47
17615;BME280;8926;49.720;6.576;2022-08-19T00:29:27;99432.13;;;21.47;63.48
17615;BME280;8926;49.720;6.576;2022-08-19T00:31:53;99430.16;;;21.49;63.69
17615;BME280;8926;49.720;6.576;2022-08-19T00:34:22;99419.50;;;21.49;63.88
17615;BME280;8926;49.720;6.576;2022-08-19T00:36:48;99418.69;;;21.49;63.60
17615;BME280;8926;49.720;6.576;2022-08-19T00:39:15;99424.81;;;21.49;63.90
17615;BME280;8926;49.720;6.576;2022-08-19T00:41:41;99428.81;;;21.45;63.62
17615;BME280;8926;49.720;6.576;2022-08-19T00:44:13;99428.63;;;21.39;64.42
17615;BME280;8926;49.720;6.576;2022-08-19T00:46:42;99424.78;;;21.33;64.78
17615;BME280;8926;49.720;6.576;2022-08-19T00:51:55;99420.31;;;21.33;64.51
17615;BME280;8926;49.720;6.576;2022-08-19T00:54:22;99422.28;;;21.31;64.33
17615;BME280;8926;49.720;6.576;2022-08-19T00:56:49;99422.13;;;21.33;64.25
17615;BME280;8926;49.720;6.576;2022-08-19T00:59:15;99423.47;;;21.29;63.68
17615;BME280;8926;49.720;6.576;2022-08-19T01:01:43;99413.16;;;21.26;64.09
17615;BME280;8926;49.720;6.576;2022-08-19T01:04:09;99414.31;;;21.23;63.97
17615;BME280;8926;49.720;6.576;2022-08-19T01:06:39;99426.63;;;21.24;63.49
17615;BME280;8926;49.720;6.576;2022-08-19T01:09:06;99425.28;;;21.20;64.52
17615;BME280;8926;49.720;6.576;2022-08-19T01:11:35;99434.00;;;21.13;65.00
17615;BME280;8926;49.720;6.576;2022-08-19T01:14:01;99427.88;;;21.12;65.56
17615;BME280;8926;49.720;6.576;2022-08-19T01:16:28;99423.72;;;21.10;65.86
17615;BME280;8926;49.720;6.576;2022-08-19T01:18:54;99418.41;;;21.10;65.63
17615;BME280;8926;49.720;6.576;2022-08-19T01:21:34;99413.09;;;21.10;65.43
17615;BME280;8926;49.720;6.576;2022-08-19T01:24:03;99410.09;;;21.13;64.87
17615;BME280;8926;49.720;6.576;2022-08-19T01:26:29;99403.44;;;21.09;64.56
17615;BME280;8926;49.720;6.576;2022-08-19T01:28:56;99395.81;;;21.06;65.05
17615;BME280;8926;49.720;6.576;2022-08-19T01:31:25;99396.16;;;21.03;64.35
17615;BME280;8926;49.720;6.576;2022-08-19T01:33:52;99403.44;;;21.00;64.47
17615;BME280;8926;49.720;6.576;2022-08-19T01:36:27;99405.44;;;20.98;64.82
17615;BME280;8926;49.720;6.576;2022-08-19T01:38:54;99402.09;;;20.96;65.29
17615;BME280;8926;49.720;6.576;2022-08-19T01:41:19;99403.09;;;20.95;65.09
17615;BME280;8926;49.720;6.576;2022-08-19T01:43:45;99405.75;;;20.95;65.18
17615;BME280;8926;49.720;6.576;2022-08-19T01:46:10;99414.72;;;20.94;65.59
17615;BME280;8926;49.720;6.576;2022-08-19T01:48:40;99415.03;;;20.91;65.69
17615;BME280;8926;49.720;6.576;2022-08-19T01:51:07;99417.00;;;20.89;66.51
17615;BME280;8926;49.720;6.576;2022-08-19T01:53:33;99407.38;;;20.88;66.07
17615;BME280;8926;49.720;6.576;2022-08-19T01:55:58;99400.25;;;20.89;66.64
17615;BME280;8926;49.720;6.576;2022-08-19T01:58:29;99409.72;;;20.91;66.51
17615;BME280;8926;49.720;6.576;2022-08-19T02:00:56;99407.22;;;20.90;66.34
17615;BME280;8926;49.720;6.576;2022-08-19T02:03:23;99405.03;;;20.85;66.27
17615;BME280;8926;49.720;6.576;2022-08-19T02:05:54;99405.69;;;20.79;66.26
17615;BME280;8926;49.720;6.576;2022-08-19T02:08:20;99406.69;;;20.78;66.13
17615;BME280;8926;49.720;6.576;2022-08-19T02:10:45;99402.69;;;20.74;66.31
17615;BME280;8926;49.720;6.576;2022-08-19T02:13:12;99408.63;;;20.68;66.83
17615;BME280;8926;49.720;6.576;2022-08-19T02:15:39;99411.47;;;20.66;66.39
17615;BME280;8926;49.720;6.576;2022-08-19T02:18:04;99418.44;;;20.67;66.64
17615;BME280;8926;49.720;6.576;2022-08-19T02:20:30;99419.25;;;20.68;67.25
17615;BME280;8926;49.720;6.576;2022-08-19T02:22:55;99421.41;;;20.64;67.28
17615;BME280;8926;49.720;6.576;2022-08-19T02:25:21;99417.91;;;20.64;66.99
17615;BME280;8926;49.720;6.576;2022-08-19T02:27:46;99418.53;;;20.58;66.95
17615;BME280;8926;49.720;6.576;2022-08-19T02:30:17;99426.13;;;20.53;67.30
17615;BME280;8926;49.720;6.576;2022-08-19T02:32:43;99413.53;;;20.55;67.15
17615;BME280;8926;49.720;6.576;2022-08-19T02:35:13;99416.88;;;20.57;66.20
17615;BME280;8926;49.720;6.576;2022-08-19T02:37:40;99422.19;;;20.57;66.30
17615;BME280;8926;49.720;6.576;2022-08-19T02:40:24;99423.69;;;20.51;66.17
17615;BME280;8926;49.720;6.576;2022-08-19T02:42:50;99411.53;;;20.49;66.57
17615;BME280;8926;49.720;6.576;2022-08-19T02:45:15;99422.63;;;20.44;66.38
17615;BME280;8926;49.720;6.576;2022-08-19T02:47:41;99421.44;;;20.39;67.63
17615;BME280;8926;49.720;6.576;2022-08-19T02:50:07;99430.22;;;20.39;67.01
17615;BME280;8926;49.720;6.576;2022-08-19T02:52:33;99430.81;;;20.33;67.18
17615;BME280;8926;49.720;6.576;2022-08-19T02:54:59;99436.28;;;20.31;67.67
17615;BME280;8926;49.720;6.576;2022-08-19T02:57:25;99441.44;;;20.33;67.68
17615;BME280;8926;49.720;6.576;2022-08-19T02:59:51;99446.22;;;20.29;68.15
17615;BME280;8926;49.720;6.576;2022-08-19T03:02:17;99437.91;;;20.24;68.08
17615;BME280;8926;49.720;6.576;2022-08-19T03:04:42;99441.56;;;20.23;67.88
17615;BME280;8926;49.720;6.576;2022-08-19T03:07:08;99442.38;;;20.24;67.86
17615;BME280;8926;49.720;6.576;2022-08-19T03:09:36;99439.59;;;20.25;67.88
17615;BME280;8926;49.720;6.576;2022-08-19T03:12:03;99440.22;;;20.27;68.54
17615;BME280;8926;49.720;6.576;2022-08-19T03:14:30;99434.28;;;20.25;68.42
17615;BME280;8926;49.720;6.576;2022-08-19T03:16:56;99432.94;;;20.29;67.44
17615;BME280;8926;49.720;6.576;2022-08-19T03:19:22;99425.00;;;20.29;67.63
17615;BME280;8926;49.720;6.576;2022-08-19T03:21:49;99433.44;;;20.25;67.30
17615;BME280;8926;49.720;6.576;2022-08-19T03:24:15;99438.41;;;20.02;68.38
17615;BME280;8926;49.720;6.576;2022-08-19T03:26:42;99440.41;;;20.00;68.32
17615;BME280;8926;49.720;6.576;2022-08-19T03:29:08;99446.00;;;19.97;69.29
17615;BME280;8926;49.720;6.576;2022-08-19T03:31:36;99450.47;;;19.96;69.38
17615;BME280;8926;49.720;6.576;2022-08-19T03:34:02;99446.84;;;19.97;69.31
17615;BME280;8926;49.720;6.576;2022-08-19T03:36:27;99447.34;;;20.01;69.14
17615;BME280;8926;49.720;6.576;2022-08-19T03:38:56;99450.66;;;20.03;69.18
17615;BME280;8926;49.720;6.576;2022-08-19T03:41:31;99462.13;;;20.04;69.18
17615;BME280;8926;49.720;6.576;2022-08-19T03:43:58;99468.78;;;20.08;68.61
17615;BME280;8926;49.720;6.576;2022-08-19T03:46:26;99462.63;;;20.07;68.27
17615;BME280;8926;49.720;6.576;2022-08-19T03:48:53;99466.28;;;20.06;68.64
17615;BME280;8926;49.720;6.576;2022-08-19T03:51:24;99469.09;;;20.05;69.32
17615;BME280;8926;49.720;6.576;2022-08-19T03:53:51;99464.63;;;20.05;68.30
17615;BME280;8926;49.720;6.576;2022-08-19T03:56:18;99461.81;;;20.07;68.42
17615;BME280;8926;49.720;6.576;2022-08-19T03:58:43;99455.66;;;20.06;67.73
17615;BME280;8926;49.720;6.576;2022-08-19T04:01:11;99455.38;;;20.09;68.11
17615;BME280;8926;49.720;6.576;2022-08-19T04:03:37;99457.25;;;20.17;68.03
17615;BME280;8926;49.720;6.576;2022-08-19T04:06:17;99444.81;;;20.17;67.42
17615;BME280;8926;49.720;6.576;2022-08-19T04:08:44;99459.78;;;20.01;68.12
17615;BME280;8926;49.720;6.576;2022-08-19T04:11:13;99467.00;;;19.90;68.87
17615;BME280;8926;49.720;6.576;2022-08-19T04:13:40;99477.06;;;19.87;69.66
17615;BME280;8926;49.720;6.576;2022-08-19T04:16:06;99478.75;;;19.88;68.88
17615;BME280;8926;49.720;6.576;2022-08-19T04:18:33;99481.00;;;19.83;68.83
17615;BME280;8926;49.720;6.576;2022-08-19T04:20:59;99477.47;;;19.74;68.49
17615;BME280;8926;49.720;6.576;2022-08-19T04:23:25;99477.38;;;19.66;70.75
17615;BME280;8926;49.720;6.576;2022-08-19T04:25:50;99475.56;;;19.67;70.38
17615;BME280;8926;49.720;6.576;2022-08-19T04:28:15;99477.78;;;19.71;70.42
17615;BME280;8926;49.720;6.576;2022-08-19T04:30:44;99484.59;;;19.74;70.06
17615;BME280;8926;49.720;6.576;2022-08-19T04:33:11;99481.09;;;19.73;70.08
17615;BME280;8926;49.720;6.576;2022-08-19T04:35:43;99474.81;;;19.74;69.73
17615;BME280;8926;49.720;6.576;2022-08-19T04:38:09;99481.59;;;19.77;70.60
17615;BME280;8926;49.720;6.576;2022-08-19T04:40:40;99481.31;;;19.80;69.67
17615;BME280;8926;49.720;6.576;2022-08-19T04:43:24;99482.97;;;19.81;69.57
17615;BME280;8926;49.720;6.576;2022-08-19T04:45:49;99483.28;;;19.78;69.79
17615;BME280;8926;49.720;6.576;2022-08-19T04:48:16;99483.28;;;19.78;70.07
17615;BME280;8926;49.720;6.576;2022-08-19T04:50:43;99477.53;;;19.82;69.59
17615;BME280;8926;49.720;6.576;2022-08-19T04:53:09;99482.00;;;19.82;68.65
17615;BME280;8926;49.720;6.576;2022-08-19T04:55:34;99483.66;;;19.83;69.46
17615;BME280;8926;49.720;6.576;2022-08-19T04:58:00;99481.38;;;19.88;68.53
17615;BME280;8926;49.720;6.576;2022-08-19T05:00:26;99480.63;;;19.78;69.53
17615;BME280;8926;49.720;6.576;2022-08-19T05:02:52;99473.66;;;19.77;70.51
17615;BME280;8926;49.720;6.576;2022-08-19T05:05:17;99479.34;;;19.82;70.69
17615;BME280;8926;49.720;6.576;2022-08-19T05:07:43;99476.47;;;19.93;69.87
17615;BME280;8926;49.720;6.576;2022-08-19T05:10:08;99475.06;;;20.24;69.49
17615;BME280;8926;49.720;6.576;2022-08-19T05:12:34;99465.06;;;20.70;68.06
17615;BME280;8926;49.720;6.576;2022-08-19T05:14:59;99476.53;;;21.13;66.67
17615;BME280;8926;49.720;6.576;2022-08-19T05:17:26;99479.16;;;21.47;65.81
17615;BME280;8926;49.720;6.576;2022-08-19T05:19:52;99474.03;;;21.53;64.91
17615;BME280;8926;49.720;6.576;2022-08-19T05:22:36;99477.00;;;21.58;65.12
17615;BME280;8926;49.720;6.576;2022-08-19T05:25:08;99476.69;;;21.94;64.67
17615;BME280;8926;49.720;6.576;2022-08-19T05:27:34;99475.06;;;22.25;63.31
17615;BME280;8926;49.720;6.576;2022-08-19T05:29:59;99482.44;;;22.62;62.73
17615;BME280;8926;49.720;6.576;2022-08-19T05:32:27;99477.84;;;23.04;62.02
17615;BME280;8926;49.720;6.576;2022-08-19T05:34:52;99480.72;;;23.33;61.66
17615;BME280;8926;49.720;6.576;2022-08-19T05:37:17;99480.72;;;23.64;60.94
17615;BME280;8926;49.720;6.576;2022-08-19T05:39:43;99483.13;;;23.96;59.42
17615;BME280;8926;49.720;6.576;2022-08-19T05:42:10;99476.75;;;24.20;58.83
17615;BME280;8926;49.720;6.576;2022-08-19T05:44:39;99478.00;;;24.32;57.79
17615;BME280;8926;49.720;6.576;2022-08-19T05:47:08;99472.50;;;24.49;57.20
17615;BME280;8926;49.720;6.576;2022-08-19T05:49:34;99476.38;;;24.61;57.47
17615;BME280;8926;49.720;6.576;2022-08-19T05:52:02;99463.56;;;24.71;56.00
17615;BME280;8926;49.720;6.576;2022-08-19T05:54:29;99464.31;;;24.65;55.98
17615;BME280;8926;49.720;6.576;2022-08-19T05:56:55;99470.84;;;24.48;56.73
17615;BME280;8926;49.720;6.576;2022-08-19T05:59:21;99483.00;;;24.35;56.42
17615;BME280;8926;49.720;6.576;2022-08-19T06:01:48;99481.34;;;24.34;57.23
17615;BME280;8926;49.720;6.576;2022-08-19T06:04:18;99492.84;;;24.35;57.23
17615;BME280;8926;49.720;6.576;2022-08-19T06:06:46;99500.22;;;24.10;57.61
17615;BME280;8926;49.720;6.576;2022-08-19T06:09:11;99504.25;;;24.06;57.49
17615;BME280;8926;49.720;6.576;2022-08-19T06:11:40;99509.34;;;23.93;58.25
17615;BME280;8926;49.720;6.576;2022-08-19T06:14:10;99503.72;;;24.11;57.30
17615;BME280;8926;49.720;6.576;2022-08-19T06:16:37;99504.84;;;24.16;57.38
17615;BME280;8926;49.720;6.576;2022-08-19T06:19:05;99504.94;;;24.23;56.76
17615;BME280;8926;49.720;6.576;2022-08-19T06:21:33;99503.25;;;24.22;57.42
17615;BME280;8926;49.720;6.576;2022-08-19T06:23:59;99499.72;;;24.29;57.01
17615;BME280;8926;49.720;6.576;2022-08-19T06:26:24;99501.16;;;24.40;56.48
17615;BME280;8926;49.720;6.576;2022-08-19T06:28:51;99505.56;;;24.48;56.68
17615;BME280;8926;49.720;6.576;2022-08-19T06:31:20;99507.22;;;24.49;56.59
17615;BME280;8926;49.720;6.576;2022-08-19T06:33:47;99523.88;;;24.51;56.43
17615;BME280;8926;49.720;6.576;2022-08-19T06:36:24;99511.84;;;24.69;56.38
17615;BME280;8926;49.720;6.576;2022-08-19T06:38:56;99510.28;;;24.75;56.17
17615;BME280;8926;49.720;6.576;2022-08-19T06:41:24;99529.09;;;24.96;56.43
17615;BME280;8926;49.720;6.576;2022-08-19T06:43:49;99515.00;;;25.17;55.66
17615;BME280;8926;49.720;6.576;2022-08-19T06:46:16;99524.44;;;25.49;54.85
17615;BME280;8926;49.720;6.576;2022-08-19T06:48:43;99524.50;;;25.56;54.32
17615;BME280;8926;49.720;6.576;2022-08-19T06:51:09;99535.00;;;25.36;54.63
17615;BME280;8926;49.720;6.576;2022-08-19T06:53:34;99537.28;;;25.39;55.21
17615;BME280;8926;49.720;6.576;2022-08-19T06:56:00;99551.13;;;25.43;54.49
17615;BME280;8926;49.720;6.576;2022-08-19T06:58:28;99551.97;;;25.79;53.75
17615;BME280;8926;49.720;6.576;2022-08-19T07:01:03;99547.84;;;26.19;53.09
17615;BME280;8926;49.720;6.576;2022-08-19T07:03:32;99547.66;;;26.42;51.65
17615;BME280;8926;49.720;6.576;2022-08-19T07:06:10;99559.16;;;26.64;51.40
17615;BME280;8926;49.720;6.576;2022-08-19T07:08:37;99555.78;;;26.83;51.50
17615;BME280;8926;49.720;6.576;2022-08-19T07:11:06;99550.66;;;26.88;51.68
17615;BME280;8926;49.720;6.576;2022-08-19T07:13:36;99546.56;;;26.92;51.23
17615;BME280;8926;49.720;6.576;2022-08-19T07:16:04;99552.97;;;26.91;50.85
17615;BME280;8926;49.720;6.576;2022-08-19T07:18:30;99555.09;;;27.02;51.06
17615;BME280;8926;49.720;6.576;2022-08-19T07:21:08;99550.22;;;27.13;50.62
17615;BME280;8926;49.720;6.576;2022-08-19T07:23:34;99548.16;;;27.15;50.95
17615;BME280;8926;49.720;6.576;2022-08-19T07:26:11;99551.88;;;27.14;50.46
17615;BME280;8926;49.720;6.576;2022-08-19T07:28:37;99542.41;;;27.18;50.76
17615;BME280;8926;49.720;6.576;2022-08-19T07:31:10;99536.22;;;27.17;50.73
17615;BME280;8926;49.720;6.576;2022-08-19T07:33:37;99548.56;;;27.12;50.57
17615;BME280;8926;49.720;6.576;2022-08-19T07:36:07;99549.03;;;27.22;50.46
17615;BME280;8926;49.720;6.576;2022-08-19T07:38:35;99547.81;;;27.31;50.25
17615;BME280;8926;49.720;6.576;2022-08-19T07:41:01;99553.81;;;27.26;50.42
17615;BME280;8926;49.720;6.576;2022-08-19T07:43:27;99545.13;;;27.31;50.46
17615;BME280;8926;49.720;6.576;2022-08-19T07:45:53;99551.53;;;27.30;50.24
17615;BME280;8926;49.720;6.576;2022-08-19T07:48:25;99551.53;;;27.30;50.05
17615;BME280;8926;49.720;6.576;2022-08-19T07:50:52;99544.34;;;27.37;50.15
17615;BME280;8926;49.720;6.576;2022-08-19T07:53:19;99543.38;;;27.51;49.88
17615;BME280;8926;49.720;6.576;2022-08-19T07:55:45;99541.56;;;27.58;50.17
17615;BME280;8926;49.720;6.576;2022-08-19T07:58:12;99547.19;;;27.70;49.25
17615;BME280;8926;49.720;6.576;2022-08-19T08:00:38;99541.00;;;27.83;49.32
17615;BME280;8926;49.720;6.576;2022-08-19T08:03:03;99545.16;;;27.92;48.88
17615;BME280;8926;49.720;6.576;2022-08-19T08:05:29;99538.13;;;27.91;47.60
17615;BME280;8926;49.720;6.576;2022-08-19T08:08:12;99538.13;;;27.91;48.42
17615;BME280;8926;49.720;6.576;2022-08-19T08:11:07;99532.34;;;28.07;48.46
17615;BME280;8926;49.720;6.576;2022-08-19T08:13:33;99531.19;;;28.23;47.88
17615;BME280;8926;49.720;6.576;2022-08-19T08:16:00;99525.38;;;28.32;47.35
17615;BME280;8926;49.720;6.576;2022-08-19T08:18:26;99522.91;;;28.57;48.41
17615;BME280;8926;49.720;6.576;2022-08-19T08:20:51;99521.25;;;28.83;46.65
17615;BME280;8926;49.720;6.576;2022-08-19T08:23:16;99520.50;;;29.14;45.86
17615;BME280;8926;49.720;6.576;2022-08-19T08:25:54;99516.03;;;29.39;44.42
17615;BME280;8926;49.720;6.576;2022-08-19T08:28:20;99524.75;;;29.41;45.88
17615;BME280;8926;49.720;6.576;2022-08-19T08:30:47;99519.34;;;29.54;45.20
17615;BME280;8926;49.720;6.576;2022-08-19T08:33:16;99524.16;;;29.77;44.17
17615;BME280;8926;49.720;6.576;2022-08-19T08:35:42;99514.59;;;29.88;44.35
17615;BME280;8926;49.720;6.576;2022-08-19T08:38:07;99522.75;;;30.06;42.58
17615;BME280;8926;49.720;6.576;2022-08-19T08:40:54;99523.00;;;30.29;42.26
17615;BME280;8926;49.720;6.576;2022-08-19T08:43:35;99522.59;;;30.51;42.18
17615;BME280;8926;49.720;6.576;2022-08-19T08:48:53;99525.50;;;30.74;42.05
17615;BME280;8926;49.720;6.576;2022-08-19T08:51:24;99518.84;;;30.77;42.22
17615;BME280;8926;49.720;6.576;2022-08-19T08:53:52;99527.06;;;30.38;40.80
17615;BME280;8926;49.720;6.576;2022-08-19T08:56:19;99523.63;;;30.50;41.83
17615;BME280;8926;49.720;6.576;2022-08-19T08:59:05;99524.84;;;30.54;39.31
17615;BME280;8926;49.720;6.576;2022-08-19T09:01:33;99524.00;;;30.60;40.35
17615;BME280;8926;49.720;6.576;2022-08-19T09:03:59;99513.06;;;30.73;39.80
17615;BME280;8926;49.720;6.576;2022-08-19T09:09:23;99508.44;;;30.80;39.63
17615;BME280;8926;49.720;6.576;2022-08-19T09:15:03;99499.31;;;31.18;39.66
17615;BME280;8926;49.720;6.576;2022-08-19T09:17:30;99499.97;;;31.31;39.78
17615;BME280;8926;49.720;6.576;2022-08-19T09:22:36;99492.19;;;31.53;38.36
17615;BME280;8926;49.720;6.576;2022-08-19T09:25:02;99485.41;;;31.62;38.94
17615;BME280;8926;49.720;6.576;2022-08-19T09:27:28;99489.00;;;31.75;38.82
17615;BME280;8926;49.720;6.576;2022-08-19T09:29:55;99489.72;;;31.82;38.22
17615;BME280;8926;49.720;6.576;2022-08-19T09:32:21;99493.03;;;31.84;37.65
17615;BME280;8926;49.720;6.576;2022-08-19T09:34:47;99487.41;;;31.97;37.33
17615;BME280;8926;49.720;6.576;2022-08-19T09:37:13;99480.84;;;31.93;38.61
17615;BME280;8926;49.720;6.576;2022-08-19T09:39:39;99489.34;;;31.66;37.35
17615;BME280;8926;49.720;6.576;2022-08-19T09:42:09;99476.53;;;31.74;38.54
17615;BME280;8926;49.720;6.576;2022-08-19T09:44:39;99470.22;;;31.50;38.70
17615;BME280;8926;49.720;6.576;2022-08-19T09:47:05;99474.03;;;31.60;37.83
17615;BME280;8926;49.720;6.576;2022-08-19T09:49:30;99472.97;;;31.61;38.85
17615;BME280;8926;49.720;6.576;2022-08-19T09:51:56;99472.59;;;31.28;38.51
17615;BME280;8926;49.720;6.576;2022-08-19T09:54:22;99478.13;;;31.33;39.03
17615;BME280;8926;49.720;6.576;2022-08-19T09:56:47;99475.63;;;31.50;38.21
17615;BME280;8926;49.720;6.576;2022-08-19T09:59:13;99477.47;;;31.37;38.65
17615;BME280;8926;49.720;6.576;2022-08-19T10:01:38;99475.00;;;31.36;38.97
17615;BME280;8926;49.720;6.576;2022-08-19T10:04:04;99477.72;;;31.78;38.23
17615;BME280;8926;49.720;6.576;2022-08-19T10:06:37;99468.34;;;32.22;37.41
17615;BME280;8926;49.720;6.576;2022-08-19T10:09:05;99474.47;;;31.99;37.81
17615;BME280;8926;49.720;6.576;2022-08-19T10:11:33;99473.28;;;31.23;37.60
17615;BME280;8926;49.720;6.576;2022-08-19T10:14:00;99478.97;;;30.79;38.50
17615;BME280;8926;49.720;6.576;2022-08-19T10:16:26;99467.22;;;30.91;38.44
17615;BME280;8926;49.720;6.576;2022-08-19T10:18:52;99459.47;;;31.31;39.10
17615;BME280;8926;49.720;6.576;2022-08-19T10:21:21;99465.19;;;31.23;38.13
17615;BME280;8926;49.720;6.576;2022-08-19T10:23:48;99466.47;;;30.84;39.12
17615;BME280;8926;49.720;6.576;2022-08-19T10:26:20;99470.59;;;30.44;39.62
17615;BME280;8926;49.720;6.576;2022-08-19T10:28:46;99476.22;;;30.17;40.61
17615;BME280;8926;49.720;6.576;2022-08-19T10:31:17;99473.19;;;29.82;40.59
17615;BME280;8926;49.720;6.576;2022-08-19T10:33:45;99462.19;;;29.52;41.34
17615;BME280;8926;49.720;6.576;2022-08-19T10:36:13;99470.94;;;29.41;42.36
17615;BME280;8926;49.720;6.576;2022-08-19T10:38:40;99461.47;;;29.95;40.71
17615;BME280;8926;49.720;6.576;2022-08-19T10:41:12;99458.09;;;30.49;39.84
17615;BME280;8926;49.720;6.576;2022-08-19T10:43:38;99445.03;;;30.89;38.66
17615;BME280;8926;49.720;6.576;2022-08-19T10:46:09;99441.47;;;31.25;38.08
17615;BME280;8926;49.720;6.576;2022-08-19T10:48:35;99445.75;;;31.33;37.20
17615;BME280;8926;49.720;6.576;2022-08-19T10:51:01;99443.88;;;30.97;38.16
17615;BME280;8926;49.720;6.576;2022-08-19T10:53:45;99447.91;;;30.33;39.32
17615;BME280;8926;49.720;6.576;2022-08-19T10:56:11;99454.41;;;29.94;39.36
17615;BME280;8926;49.720;6.576;2022-08-19T10:58:54;99448.84;;;30.20;38.93
17615;BME280;8926;49.720;6.576;2022-08-19T11:01:21;99436.50;;;30.74;38.12
17615;BME280;8926;49.720;6.576;2022-08-19T11:03:46;99432.41;;;31.20;37.25
17615;BME280;8926;49.720;6.576;2022-08-19T11:06:12;99438.16;;;31.53;37.21
17615;BME280;8926;49.720;6.576;2022-08-19T11:08:37;99442.28;;;31.56;37.12
17615;BME280;8926;49.720;6.576;2022-08-19T11:11:04;99444.72;;;30.97;37.33
17615;BME280;8926;49.720;6.576;2022-08-19T11:13:31;99440.91;;;30.68;38.87
17615;BME280;8926;49.720;6.576;2022-08-19T11:16:19;99443.34;;;30.33;39.66
17615;BME280;8926;49.720;6.576;2022-08-19T11:18:50;99436.50;;;30.13;38.87
17615;BME280;8926;49.720;6.576;2022-08-19T11:23:56;99420.91;;;30.58;38.52
17615;BME280;8926;49.720;6.576;2022-08-19T11:26:23;99439.34;;;30.79;37.98
17615;BME280;8926;49.720;6.576;2022-08-19T11:28:50;99431.50;;;30.53;38.82
17615;BME280;8926;49.720;6.576;2022-08-19T11:31:21;99427.50;;;30.80;38.31
17615;BME280;8926;49.720;6.576;2022-08-19T11:33:47;99426.78;;;31.03;38.51
17615;BME280;8926;49.720;6.576;2022-08-19T11:36:16;99426.38;;;31.36;37.95
17615;BME280;8926;49.720;6.576;2022-08-19T11:38:41;99417.28;;;31.60;37.88
17615;BME280;8926;49.720;6.576;2022-08-19T11:41:08;99422.03;;;31.77;37.32
17615;BME280;8926;49.720;6.576;2022-08-19T11:43:34;99411.53;;;31.57;36.24
17615;BME280;8926;49.720;6.576;2022-08-19T11:46:04;99423.53;;;31.31;35.81
17615;BME280;8926;49.720;6.576;2022-08-19T11:48:29;99416.03;;;31.33;36.46
17615;BME280;8926;49.720;6.576;2022-08-19T11:50:54;99434.88;;;31.51;35.61
17615;BME280;8926;49.720;6.576;2022-08-19T11:53:23;99429.28;;;31.64;35.66
17615;BME280;8926;49.720;6.576;2022-08-19T11:55:49;99425.72;;;31.22;36.23
17615;BME280;8926;49.720;6.576;2022-08-19T11:58:16;99415.38;;;31.19;36.73
17615;BME280;8926;49.720;6.576;2022-08-19T12:00:42;99429.16;;;30.81;37.41
17615;BME280;8926;49.720;6.576;2022-08-19T12:03:11;99427.34;;;30.75;37.47
17615;BME280;8926;49.720;6.576;2022-08-19T12:05:38;99432.72;;;30.93;36.87
17615;BME280;8926;49.720;6.576;2022-08-19T12:08:04;99426.34;;;31.06;36.69
17615;BME280;8926;49.720;6.576;2022-08-19T12:10:30;99423.41;;;31.08;36.22
17615;BME280;8926;49.720;6.576;2022-08-19T12:12:55;99424.09;;;31.03;36.56
17615;BME280;8926;49.720;6.576;2022-08-19T12:15:21;99428.94;;;30.83;36.72
17615;BME280;8926;49.720;6.576;2022-08-19T12:17:46;99428.59;;;30.54;36.68
17615;BME280;8926;49.720;6.576;2022-08-19T12:20:12;99428.69;;;30.23;37.10
17615;BME280;8926;49.720;6.576;2022-08-19T12:22:42;99428.22;;;30.32;37.20
17615;BME280;8926;49.720;6.576;2022-08-19T12:25:10;99426.84;;;30.42;36.71
17615;BME280;8926;49.720;6.576;2022-08-19T12:27:36;99419.44;;;30.62;36.61
17615;BME280;8926;49.720;6.576;2022-08-19T12:30:03;99423.44;;;30.71;36.71
17615;BME280;8926;49.720;6.576;2022-08-19T12:32:28;99404.41;;;30.84;36.15
17615;BME280;8926;49.720;6.576;2022-08-19T12:34:54;99413.72;;;30.88;34.40
17615;BME280;8926;49.720;6.576;2022-08-19T12:37:19;99416.56;;;30.75;34.91
17615;BME280;8926;49.720;6.576;2022-08-19T12:39:45;99421.34;;;30.55;35.84
17615;BME280;8926;49.720;6.576;2022-08-19T12:42:12;99409.63;;;30.43;35.46
17615;BME280;8926;49.720;6.576;2022-08-19T12:44:39;99409.78;;;30.29;35.87
17615;BME280;8926;49.720;6.576;2022-08-19T12:47:05;99416.38;;;30.33;35.51
17615;BME280;8926;49.720;6.576;2022-08-19T12:49:32;99410.81;;;30.28;36.04
17615;BME280;8926;49.720;6.576;2022-08-19T12:52:01;99412.31;;;30.24;36.11
17615;BME280;8926;49.720;6.576;2022-08-19T12:54:28;99417.84;;;30.11;36.24
17615;BME280;8926;49.720;6.576;2022-08-19T12:56:54;99414.09;;;30.12;36.43
17615;BME280;8926;49.720;6.576;2022-08-19T12:59:20;99410.81;;;30.28;35.82
17615;BME280;8926;49.720;6.576;2022-08-19T13:01:46;99411.59;;;30.54;37.05
17615;BME280;8926;49.720;6.576;2022-08-19T13:04:11;99410.78;;;30.71;36.29
17615;BME280;8926;49.720;6.576;2022-08-19T13:06:37;99402.91;;;30.88;35.84
17615;BME280;8926;49.720;6.576;2022-08-19T13:09:03;99405.91;;;30.80;35.25
17615;BME280;8926;49.720;6.576;2022-08-19T13:11:28;99412.22;;;30.74;35.78
17615;BME280;8926;49.720;6.576;2022-08-19T13:13:57;99403.06;;;30.75;35.54
17615;BME280;8926;49.720;6.576;2022-08-19T13:16:23;99400.69;;;30.85;34.28
17615;BME280;8926;49.720;6.576;2022-08-19T13:18:49;99401.72;;;30.84;35.55
17615;BME280;8926;49.720;6.576;2022-08-19T13:21:18;99410.94;;;30.77;35.79
17615;BME280;8926;49.720;6.576;2022-08-19T13:23:45;99405.47;;;30.83;35.65
17615;BME280;8926;49.720;6.576;2022-08-19T13:26:11;99408.22;;;30.95;35.16
17615;BME280;8926;49.720;6.576;2022-08-19T13:28:37;99398.13;;;30.90;34.28